Ravenna, OH

7:18 PM EDT on September 25, 2017 (GMT -0400)
Ravenna

Weather History for KPOV - December, 2011

Change the Weather History Date:

Sunday, December 11, 2011

  Actual Average (KCAK) Record (KCAK)
Temperature  
Mean Temperature 26 °F -  
Max Temperature 35 °F 37 °F 62 °F (1979)
Min Temperature 17 °F 25 °F -5 °F (1917)
Degree Days  
Heating Degree Days 39    
Moisture  
Dew Point 14 °F    
Average Humidity 64    
Maximum Humidity 88    
Minimum Humidity 34    
Precipitation  
Precipitation 0.00 in - - ()
Sea Level Pressure  
Sea Level Pressure 30.51 in    
Wind  
Wind Speed 1 mph ()    
Max Wind Speed 8 mph    
Max Gust Speed -    
Visibility 10.0 miles    
Events      
Averages and records for this station are not official NWS values.
T = Trace of Precipitation, MM = Missing Value Source: Averaged Metar Reports

Daily Weather History Graph

Daily Weather History Graph

Search for Another Location

Airport or City:

Trip Planner

Search our weather history database for the weather conditions in past years. The results will help you decide how hot, cold, wet, or windy it might be!

Date:

Astronomy

Dec. 11, 2011 Rise Set
Actual Time 7:40 AM EST 4:56 PM EST
Civil Twilight 7:09 AM EST 5:27 PM EST
Nautical Twilight 6:34 AM EST 6:01 PM EST
Astronomical Twilight 6:00 AM EST 6:35 PM EST
Moon 6:04 PM EST (12/11) 8:27 AM EST (12/11)
Length of Visible Light 10h 18m
Length of Day
9h 15m
Full, 99% of the Moon is Illuminated
Dec 11
Full
Dec 17
Last Quarter
Dec 24
New
Jan 1
First Quarter
Jan 9
Full

Hourly Weather History & Observations

Time (EST) Temp. Windchill Dew Point Humidity Pressure Visibility Wind Dir Wind Speed Gust Speed Precip Events Conditions
12:19 AM 21.2 °F - 15.1 °F 77% 30.49 in 10.0 mi Calm Calm - N/A   Clear
12:39 AM 20.3 °F - 15.1 °F 80% 30.49 in 10.0 mi Calm Calm - N/A   Clear
12:59 AM 19.9 °F - 15.1 °F 81% 30.49 in 10.0 mi Calm Calm - N/A   Clear
1:19 AM 20.1 °F - 14.9 °F 80% 30.49 in 10.0 mi Calm Calm - N/A   Clear
1:39 AM 19.8 °F - 15.1 °F 82% 30.49 in 10.0 mi Calm Calm - N/A   Clear
1:59 AM 19.2 °F - 14.9 °F 83% 30.49 in 10.0 mi Calm Calm - N/A   Clear
2:19 AM 19.4 °F - 14.9 °F 83% 30.49 in 10.0 mi Calm Calm - N/A   Clear
2:38 AM 19.4 °F 14.3 °F 14.7 °F 82% 30.50 in 10.0 mi SW 3.5 mph - N/A   Clear
2:59 AM 19.2 °F 14.1 °F 15.1 °F 84% 30.50 in 10.0 mi SW 3.5 mph - N/A   Clear
3:19 AM 19.4 °F - 14.7 °F 82% 30.50 in 10.0 mi Calm Calm - N/A   Clear
3:38 AM 19.9 °F - 14.7 °F 80% 30.50 in 10.0 mi Calm Calm - N/A   Clear
3:59 AM 19.4 °F - 14.9 °F 83% 30.50 in 10.0 mi Calm Calm - N/A   Clear
4:19 AM 19.4 °F - 14.7 °F 82% 30.50 in 10.0 mi Calm Calm - N/A   Clear
4:39 AM 19.2 °F - 14.5 °F 82% 30.50 in 10.0 mi Calm Calm - N/A   Clear
4:59 AM 19.4 °F - 14.2 °F 80% 30.50 in 10.0 mi Calm Calm - N/A   Clear
5:19 AM 19.2 °F - 14.2 °F 81% 30.50 in 10.0 mi Calm Calm - N/A   Clear
5:59 AM 19.0 °F - 13.6 °F 79% 30.51 in 10.0 mi Calm Calm - N/A   Clear
6:19 AM 18.0 °F - 14.5 °F 86% 30.52 in 10.0 mi Calm Calm - N/A   Clear
6:39 AM 18.1 °F - 14.4 °F 85% 30.52 in 10.0 mi Calm Calm - N/A   Clear
6:59 AM 17.8 °F - 14.4 °F 86% 30.52 in 10.0 mi Calm Calm - N/A   Clear
7:19 AM 18.0 °F - 14.9 °F 88% 30.53 in 10.0 mi Calm Calm - N/A   Clear
7:38 AM 17.6 °F - 14.5 °F 88% 30.54 in 10.0 mi Calm Calm - N/A   Clear
7:59 AM 17.8 °F - 14.9 °F 88% 30.54 in 10.0 mi Calm Calm - N/A   Clear
8:19 AM 18.9 °F - 14.2 °F 82% 30.55 in 10.0 mi Calm Calm - N/A   Clear
8:39 AM 20.7 °F - 14.4 °F 77% 30.56 in 10.0 mi Calm Calm - N/A   Clear
8:59 AM 22.1 °F 17.4 °F 14.0 °F 71% 30.56 in 10.0 mi SW 3.5 mph - N/A   Clear
9:19 AM 23.9 °F 19.5 °F 13.8 °F 65% 30.56 in 10.0 mi SSW 3.5 mph - N/A   Clear
9:39 AM 25.3 °F 17.6 °F 14.2 °F 63% 30.57 in 10.0 mi South 6.9 mph - N/A   Clear
9:59 AM 25.7 °F 20.1 °F 13.5 °F 60% 30.57 in 10.0 mi South 4.6 mph - N/A   Clear
10:19 AM 26.8 °F 20.2 °F 13.5 °F 57% 30.57 in 10.0 mi SSW 5.8 mph - N/A   Clear
10:38 AM 28.0 °F 21.7 °F 13.1 °F 54% 30.57 in 10.0 mi SSW 5.8 mph - N/A   Clear
10:59 AM 28.4 °F 23.3 °F 13.5 °F 54% 30.56 in 10.0 mi SSW 4.6 mph - N/A   Clear
11:19 AM 29.3 °F 22.3 °F 13.8 °F 53% 30.56 in 10.0 mi SSW 6.9 mph - N/A   Clear
11:39 AM 30.0 °F 25.2 °F 13.5 °F 50% 30.55 in 10.0 mi SSW 4.6 mph - N/A   Clear
11:59 AM 30.7 °F 23.3 °F 12.2 °F 46% 30.55 in 10.0 mi SW 8.1 mph - N/A   Clear
12:19 PM 31.1 °F 25.4 °F 10.8 °F 43% 30.54 in 10.0 mi South 5.8 mph - N/A   Clear
12:39 PM 32.0 °F 25.6 °F 10.4 °F 41% 30.53 in 10.0 mi SSW 6.9 mph - N/A   Clear
12:59 PM 32.2 °F 25.8 °F 10.0 °F 40% 30.52 in 10.0 mi SSE 6.9 mph - N/A   Clear
1:19 PM 32.7 °F 29.6 °F 11.1 °F 41% 30.52 in 10.0 mi SSW 3.5 mph - N/A   Clear
1:39 PM 33.4 °F 28.1 °F 10.2 °F 38% 30.51 in 10.0 mi SSW 5.8 mph - N/A   Clear
1:59 PM 33.8 °F 29.6 °F 10.0 °F 37% 30.51 in 10.0 mi SSE 4.6 mph - N/A   Clear
2:19 PM 34.3 °F 29.2 °F 9.5 °F 36% 30.50 in 10.0 mi SSW 5.8 mph - N/A   Clear
2:39 PM 34.3 °F 31.4 °F 8.8 °F 35% 30.49 in 10.0 mi South 3.5 mph - N/A   Clear
2:59 PM 34.9 °F 32.0 °F 8.8 °F 34% 30.49 in 10.0 mi SSE 3.5 mph - N/A   Clear
3:19 PM 35.1 °F 32.2 °F 12.4 °F 39% 30.48 in 10.0 mi SSE 3.5 mph - N/A   Clear
3:39 PM 34.7 °F 29.6 °F 11.5 °F 38% 30.48 in 10.0 mi SSE 5.8 mph - N/A   Clear
3:59 PM 34.2 °F 30.0 °F 11.1 °F 39% 30.48 in 10.0 mi SSE 4.6 mph - N/A   Clear
4:19 PM 34.0 °F 31.0 °F 9.9 °F 37% 30.48 in 10.0 mi South 3.5 mph - N/A   Clear
4:39 PM 32.9 °F - 12.0 °F 42% 30.48 in 10.0 mi Calm Calm - N/A   Clear
5:00 PM 32.0 °F - 13.5 °F 46% 30.48 in 10.0 mi Calm Calm - N/A   Clear
5:19 PM 30.6 °F - 15.1 °F 53% 30.48 in 10.0 mi Calm Calm - N/A   Clear
5:39 PM 30.2 °F - 14.9 °F 53% 30.48 in 10.0 mi Calm Calm - N/A   Clear
5:59 PM 30.2 °F - 14.4 °F 52% 30.47 in 10.0 mi Calm Calm - N/A   Clear
6:19 PM 29.3 °F - 14.5 °F 54% 30.48 in 10.0 mi Calm Calm - N/A   Clear
6:39 PM 28.6 °F - 14.4 °F 55% 30.48 in 10.0 mi Calm Calm - N/A   Clear
6:59 PM 27.1 °F - 14.5 °F 59% 30.48 in 10.0 mi Calm Calm - N/A   Clear
7:19 PM 28.9 °F - 14.4 °F 55% 30.48 in 10.0 mi Calm Calm - N/A   Clear
7:39 PM 27.7 °F - 15.3 °F 60% 30.49 in 10.0 mi Calm Calm - N/A   Clear
7:59 PM 25.5 °F - 17.1 °F 70% 30.49 in 10.0 mi Calm Calm - N/A   Clear
8:19 PM 25.0 °F - 16.0 °F 69% 30.48 in 10.0 mi Calm Calm - N/A   Clear
8:39 PM 25.2 °F - 15.8 °F 68% 30.49 in 10.0 mi Calm Calm - N/A   Clear
9:00 PM 23.4 °F - 16.7 °F 76% 30.48 in 10.0 mi Calm Calm - N/A   Clear
9:19 PM 25.5 °F - 14.9 °F 64% 30.48 in 10.0 mi Calm Calm - N/A   Clear
9:59 PM 23.5 °F - 15.1 °F 70% 30.47 in 10.0 mi Calm Calm - N/A   Clear
10:19 PM 25.0 °F - 14.7 °F 65% 30.47 in 10.0 mi Calm Calm - N/A   Clear
10:39 PM 25.3 °F - 13.8 °F 62% 30.47 in 10.0 mi Calm Calm - N/A   Clear
10:59 PM 25.3 °F - 14.0 °F 62% 30.47 in 10.0 mi Calm Calm - N/A   Clear
11:19 PM 25.2 °F - 13.8 °F 62% 30.47 in 10.0 mi Calm Calm - N/A   Clear